createdAt,value
2018-05-14T00:00:00.701Z,8.27
2018-05-14T00:02:28.135Z,8.43
2018-05-14T00:04:55.566Z,7.80
2018-05-14T00:07:22.999Z,7.13
2018-05-14T00:09:50.476Z,7.60
2018-05-14T00:12:17.908Z,6.73
2018-05-14T00:14:45.348Z,7.97
2018-05-14T00:17:12.782Z,7.00
2018-05-14T00:19:40.982Z,6.47
2018-05-14T00:22:08.407Z,5.87
2018-05-14T00:24:35.842Z,6.27
2018-05-14T00:27:03.296Z,5.60
2018-05-14T00:29:30.734Z,5.63
2018-05-14T00:31:58.182Z,5.70
2018-05-14T00:34:25.602Z,6.13
2018-05-14T00:36:53.027Z,5.27
2018-05-14T00:39:20.481Z,6.90
2018-05-14T00:41:47.919Z,5.40
2018-05-14T00:44:15.346Z,7.43
2018-05-14T00:46:42.939Z,6.13
2018-05-14T00:49:10.374Z,5.57
2018-05-14T00:51:37.798Z,5.27
2018-05-14T00:54:05.487Z,5.10
2018-05-14T00:56:32.923Z,5.23
2018-05-14T00:59:00.349Z,5.63
2018-05-14T01:01:27.776Z,4.80
2018-05-14T01:03:55.211Z,5.10
2018-05-14T01:06:22.654Z,5.20
2018-05-14T01:08:50.082Z,6.20
2018-05-14T01:11:17.526Z,5.30
2018-05-14T01:13:44.968Z,6.10
2018-05-14T01:16:12.545Z,4.50
2018-05-14T01:18:39.989Z,4.93
2018-05-14T01:21:07.414Z,4.17
2018-05-14T01:23:34.846Z,4.00
2018-05-14T01:26:02.286Z,3.57
2018-05-14T01:28:29.730Z,3.50
2018-05-14T01:30:57.159Z,3.63
2018-05-14T01:33:24.581Z,3.30
2018-05-14T01:35:52.005Z,3.83
2018-05-14T01:38:19.435Z,5.13
2018-05-14T01:40:46.881Z,3.80
2018-05-14T01:43:14.299Z,4.23
2018-05-14T01:45:41.738Z,3.53
2018-05-14T01:48:09.185Z,3.87
2018-05-14T01:50:36.609Z,4.00
2018-05-14T01:53:04.062Z,4.00
2018-05-14T01:55:31.498Z,4.10
2018-05-14T01:57:58.932Z,3.60
2018-05-14T02:00:26.642Z,3.90
2018-05-14T02:02:54.071Z,3.50
2018-05-14T02:05:21.520Z,4.10
2018-05-14T02:07:49.724Z,6.00
2018-05-14T02:10:17.142Z,3.20
2018-05-14T02:12:45.357Z,3.30
2018-05-14T02:15:12.776Z,3.57
2018-05-14T02:17:40.228Z,3.53
2018-05-14T02:20:07.655Z,3.13
2018-05-14T02:22:35.090Z,3.00
2018-05-14T02:25:02.529Z,4.67
2018-05-14T02:27:29.961Z,2.70
2018-05-14T02:29:57.399Z,3.17
2018-05-14T02:32:24.822Z,3.00
2018-05-14T02:34:52.253Z,3.10
2018-05-14T02:37:19.706Z,4.53
2018-05-14T02:39:47.139Z,3.20
2018-05-14T02:42:14.570Z,3.37
2018-05-14T02:44:42.046Z,3.43
2018-05-14T02:47:09.464Z,3.40
2018-05-14T02:49:36.905Z,3.10
2018-05-14T02:52:04.351Z,2.83
2018-05-14T02:54:31.775Z,2.67
2018-05-14T02:57:00.118Z,3.57
2018-05-14T02:59:27.551Z,3.10
2018-05-14T03:01:54.985Z,2.60
2018-05-14T03:04:22.427Z,2.60
2018-05-14T03:06:49.868Z,2.53
2018-05-14T03:09:17.303Z,3.07
2018-05-14T03:11:44.744Z,2.30
2018-05-14T03:14:12.187Z,2.27
2018-05-14T03:16:39.618Z,2.73
2018-05-14T03:19:07.367Z,2.57
2018-05-14T03:21:35.388Z,2.43
2018-05-14T03:24:02.819Z,3.20
2018-05-14T03:26:30.274Z,3.13
2018-05-14T03:28:57.726Z,3.57
2018-05-14T03:31:25.181Z,2.40
2018-05-14T03:33:52.612Z,4.00
2018-05-14T03:36:20.063Z,3.13
2018-05-14T03:38:48.261Z,4.63
2018-05-14T03:41:15.706Z,2.70
2018-05-14T03:43:43.164Z,4.37
2018-05-14T03:46:10.586Z,3.17
2018-05-14T03:48:38.019Z,3.07
2018-05-14T03:51:05.774Z,3.40
2018-05-14T03:53:33.206Z,3.60
2018-05-14T03:56:00.639Z,3.00
2018-05-14T03:58:39.755Z,3.23
2018-05-14T04:01:14.795Z,5.23
2018-05-14T04:03:54.838Z,3.60
2018-05-14T04:06:34.099Z,2.60
2018-05-14T04:09:01.561Z,4.50
2018-05-14T04:11:29.763Z,3.10
2018-05-14T04:13:57.197Z,3.83
2018-05-14T04:16:25.450Z,3.50
2018-05-14T04:18:53.948Z,3.70
2018-05-14T04:21:21.390Z,4.67
2018-05-14T04:23:48.838Z,3.30
2018-05-14T04:26:16.269Z,4.87
2018-05-14T04:28:43.968Z,4.33
2018-05-14T04:31:11.392Z,6.93
2018-05-14T04:33:38.816Z,4.70
2018-05-14T04:36:06.557Z,7.53
2018-05-14T04:38:33.978Z,4.93
2018-05-14T04:41:01.406Z,6.17
2018-05-14T04:43:28.863Z,7.17
2018-05-14T04:45:56.296Z,6.90
2018-05-14T04:48:24.246Z,7.53
2018-05-14T04:50:51.716Z,8.27
2018-05-14T04:53:19.178Z,6.60
2018-05-14T04:55:46.611Z,10.20
2018-05-14T04:58:14.049Z,6.50
2018-05-14T05:00:41.507Z,8.73
2018-05-14T05:03:08.940Z,7.03
2018-05-14T05:05:36.399Z,8.00
2018-05-14T05:08:03.842Z,8.17
2018-05-14T05:10:31.360Z,7.80
2018-05-14T05:12:58.711Z,9.90
2018-05-14T05:15:26.153Z,9.67
2018-05-14T05:17:53.583Z,9.50
2018-05-14T05:20:21.010Z,9.77
2018-05-14T05:22:48.454Z,8.23
2018-05-14T05:25:15.872Z,7.73
2018-05-14T05:27:43.315Z,8.83
2018-05-14T05:30:10.902Z,9.43
2018-05-14T05:32:38.387Z,8.03
2018-05-14T05:35:05.804Z,12.50
2018-05-14T05:37:33.253Z,11.43
2018-05-14T05:40:00.686Z,8.47
2018-05-14T05:42:28.100Z,9.27
2018-05-14T05:44:56.451Z,14.63
2018-05-14T05:47:23.877Z,8.67
2018-05-14T05:49:51.310Z,8.23
2018-05-14T05:52:19.764Z,8.00
2018-05-14T05:54:47.107Z,8.83
2018-05-14T05:57:14.543Z,9.17
2018-05-14T05:59:41.984Z,9.73
2018-05-14T06:02:09.740Z,10.53
2018-05-14T06:04:37.166Z,11.17
2018-05-14T06:07:04.602Z,13.53
2018-05-14T06:09:32.434Z,12.00
2018-05-14T06:11:59.843Z,28.40
2018-05-14T06:14:27.277Z,20.03
2018-05-14T06:16:54.725Z,12.20
2018-05-14T06:19:22.154Z,13.10
2018-05-14T06:21:49.866Z,8.90
2018-05-14T06:24:18.073Z,11.90
2018-05-14T06:26:46.446Z,8.73
2018-05-14T06:29:14.035Z,11.10
2018-05-14T06:31:41.483Z,9.57
2018-05-14T06:34:08.924Z,9.57
2018-05-14T06:36:36.367Z,6.27
2018-05-14T06:39:03.837Z,9.00
2018-05-14T06:41:31.281Z,10.47
2018-05-14T06:43:58.867Z,6.83
2018-05-14T06:46:26.301Z,10.10
2018-05-14T06:48:53.745Z,8.43
2018-05-14T06:51:21.187Z,8.87
2018-05-14T06:53:48.616Z,8.77
2018-05-14T06:56:16.059Z,9.10
2018-05-14T06:58:44.262Z,8.20
2018-05-14T07:01:11.694Z,9.60
2018-05-14T07:03:39.886Z,9.80
2018-05-14T07:06:07.603Z,8.67
2018-05-14T07:08:35.039Z,9.10
2018-05-14T07:11:02.475Z,8.13
2018-05-14T07:13:29.909Z,9.47
2018-05-14T07:15:58.120Z,9.10
2018-05-14T07:18:25.554Z,9.43
2018-05-14T07:20:53.013Z,8.53
2018-05-14T07:23:20.442Z,9.33
2018-05-14T07:25:47.898Z,9.70
2018-05-14T07:28:15.340Z,7.90
2018-05-14T07:30:42.783Z,8.47
2018-05-14T07:33:10.271Z,7.90
2018-05-14T07:35:37.647Z,10.70
2018-05-14T07:38:05.116Z,10.17
2018-05-14T07:40:32.700Z,9.83
2018-05-14T07:43:00.182Z,10.03
2018-05-14T07:45:27.571Z,11.67
2018-05-14T07:47:55.017Z,11.23
2018-05-14T07:50:22.473Z,9.60
2018-05-14T07:52:49.959Z,10.50
2018-05-14T07:55:17.400Z,9.83
2018-05-14T07:57:44.782Z,8.47
2018-05-14T08:00:12.455Z,9.67
2018-05-14T08:02:39.791Z,8.13
2018-05-14T08:05:07.230Z,9.63
2018-05-14T08:07:34.923Z,9.13
2018-05-14T08:10:02.357Z,11.60
2018-05-14T08:12:29.790Z,9.03
2018-05-14T08:14:57.303Z,11.10
2018-05-14T08:17:24.737Z,9.00
2018-05-14T08:19:52.926Z,9.43
2018-05-14T08:22:20.502Z,11.67
2018-05-14T08:24:47.927Z,8.90
2018-05-14T08:27:15.360Z,10.43
2018-05-14T08:29:42.802Z,10.63
2018-05-14T08:32:10.235Z,10.70
2018-05-14T08:34:37.678Z,9.03
2018-05-14T08:37:05.237Z,11.07
2018-05-14T08:39:32.567Z,10.40
2018-05-14T08:42:00.027Z,10.90
2018-05-14T08:44:27.464Z,9.80
2018-05-14T08:46:54.898Z,9.63
2018-05-14T08:49:22.335Z,9.97
2018-05-14T08:51:49.767Z,9.97
2018-05-14T08:54:17.346Z,9.77
2018-05-14T08:56:44.636Z,7.60
2018-05-14T08:59:12.079Z,7.97
2018-05-14T09:01:39.675Z,8.93
2018-05-14T09:04:07.112Z,9.10
2018-05-14T09:06:34.530Z,8.33
2018-05-14T09:09:01.967Z,7.87
2018-05-14T09:11:29.402Z,8.77
2018-05-14T09:13:57.882Z,10.20
2018-05-14T09:16:25.316Z,9.27
2018-05-14T09:18:52.749Z,10.73
2018-05-14T09:21:20.207Z,12.33
2018-05-14T09:23:47.673Z,10.77
2018-05-14T09:26:15.107Z,9.57
2018-05-14T09:28:42.535Z,8.83
2018-05-14T09:31:09.982Z,10.87
2018-05-14T09:33:37.419Z,9.50
2018-05-14T09:36:04.858Z,10.53
2018-05-14T09:38:32.299Z,11.07
2018-05-14T09:41:00.029Z,10.90
2018-05-14T09:43:27.466Z,11.73
2018-05-14T09:45:54.912Z,11.23
2018-05-14T09:48:22.361Z,11.77
2018-05-14T09:50:49.807Z,12.87
2018-05-14T09:53:17.260Z,12.63
2018-05-14T09:55:44.699Z,12.73
2018-05-14T09:58:12.905Z,13.83
2018-05-14T10:00:40.347Z,13.67
2018-05-14T10:03:07.779Z,13.50
2018-05-14T10:05:35.220Z,14.10
2018-05-14T10:08:02.663Z,12.23
2018-05-14T10:10:30.102Z,12.40
2018-05-14T10:12:57.582Z,12.50
2018-05-14T10:15:25.011Z,12.37
2018-05-14T10:17:52.516Z,11.50
2018-05-14T10:20:19.986Z,11.80
2018-05-14T10:22:47.415Z,13.13
2018-05-14T10:25:15.176Z,12.83
2018-05-14T10:27:42.618Z,13.13
2018-05-14T10:30:10.061Z,11.83
2018-05-14T10:32:37.515Z,11.07
2018-05-14T10:35:05.033Z,11.57
2018-05-14T10:37:32.479Z,12.33
2018-05-14T10:40:00.704Z,13.53
2018-05-14T10:42:28.151Z,13.30
2018-05-14T10:44:55.579Z,15.30
2018-05-14T10:47:23.036Z,13.13
2018-05-14T10:49:50.475Z,13.20
2018-05-14T10:52:17.919Z,16.03
2018-05-14T10:54:45.471Z,15.37
2018-05-14T10:57:12.905Z,13.50
2018-05-14T10:59:40.360Z,13.20
2018-05-14T11:02:08.130Z,16.40
2018-05-14T11:04:35.579Z,14.13
2018-05-14T11:07:03.011Z,16.67
2018-05-14T11:09:31.387Z,18.10
2018-05-14T11:11:58.867Z,16.10
2018-05-14T11:14:26.310Z,18.67
2018-05-14T11:16:54.563Z,17.90
2018-05-14T11:19:22.010Z,16.43
2018-05-14T11:21:49.452Z,15.77
2018-05-14T11:24:16.883Z,16.80
2018-05-14T11:26:44.331Z,16.20
2018-05-14T11:29:11.790Z,14.63
2018-05-14T11:31:39.228Z,17.33
2018-05-14T11:34:06.657Z,17.70
2018-05-14T11:36:34.117Z,18.20
2018-05-14T11:39:01.548Z,17.33
2018-05-14T11:41:29.005Z,16.80
2018-05-14T11:43:56.571Z,17.33
2018-05-14T11:46:24.028Z,16.60
2018-05-14T11:48:51.507Z,17.60
2018-05-14T11:51:18.963Z,17.57
2018-05-14T11:53:46.394Z,16.87
2018-05-14T11:56:13.838Z,17.93
2018-05-14T11:58:41.298Z,18.77
2018-05-14T12:01:08.738Z,19.10
2018-05-14T12:03:36.186Z,19.57
2018-05-14T12:06:03.643Z,23.57
2018-05-14T12:08:31.085Z,20.27
2018-05-14T12:10:58.710Z,19.60
2018-05-14T12:13:26.151Z,21.20
2018-05-14T12:15:53.741Z,19.53
2018-05-14T12:18:21.179Z,20.40
2018-05-14T12:20:48.625Z,23.37
2018-05-14T12:23:16.087Z,22.50
2018-05-14T12:25:44.840Z,21.60
2018-05-14T12:28:12.992Z,24.43
2018-05-14T12:30:40.514Z,25.80
2018-05-14T12:33:07.962Z,22.70
2018-05-14T12:35:35.537Z,25.50
2018-05-14T12:38:02.979Z,24.13
2018-05-14T12:40:32.459Z,22.77
2018-05-14T12:42:59.911Z,21.00
2018-05-14T12:45:28.296Z,22.23
2018-05-14T12:47:55.743Z,23.53
2018-05-14T12:50:24.013Z,20.30
2018-05-14T12:52:51.442Z,23.47
2018-05-14T12:55:18.887Z,24.17
2018-05-14T12:57:46.331Z,23.97
2018-05-14T13:00:13.791Z,25.93
2018-05-14T13:02:42.013Z,26.77
2018-05-14T13:05:09.460Z,23.30
2018-05-14T13:07:36.894Z,23.87
2018-05-14T13:10:04.357Z,25.77
2018-05-14T13:12:31.814Z,27.87
2018-05-14T13:14:59.386Z,25.40
2018-05-14T13:17:26.856Z,22.90
2018-05-14T13:19:54.280Z,25.53
2018-05-14T13:22:21.726Z,24.83
2018-05-14T13:24:49.288Z,25.73
2018-05-14T13:27:16.874Z,24.00
2018-05-14T13:29:44.333Z,22.53
2018-05-14T13:32:11.885Z,24.57
2018-05-14T13:34:39.889Z,25.33
2018-05-14T13:37:08.098Z,26.23
2018-05-14T13:39:35.768Z,25.37
2018-05-14T13:42:03.189Z,24.50
2018-05-14T13:44:32.237Z,23.00
2018-05-14T13:46:59.907Z,22.57
2018-05-14T13:49:27.346Z,26.13
2018-05-14T13:51:54.847Z,23.00
2018-05-14T13:54:22.442Z,24.40
2018-05-14T13:56:49.943Z,24.63
2018-05-14T13:59:17.573Z,25.97
2018-05-14T14:01:45.146Z,23.43
2018-05-14T14:04:12.580Z,26.20
2018-05-14T14:06:40.027Z,24.83
2018-05-14T14:09:08.237Z,26.63
2018-05-14T14:11:35.687Z,23.50
2018-05-14T14:14:03.119Z,27.33
2018-05-14T14:16:30.579Z,26.93
2018-05-14T14:18:58.802Z,27.63
2018-05-14T14:21:26.239Z,26.80
2018-05-14T14:23:53.833Z,28.23
2018-05-14T14:26:21.120Z,28.67
2018-05-14T14:28:48.549Z,30.73
2018-05-14T14:31:16.012Z,32.60
2018-05-14T14:33:43.740Z,28.73
2018-05-14T14:36:11.295Z,29.00
2018-05-14T14:38:38.622Z,30.43
2018-05-14T14:41:06.087Z,29.30
2018-05-14T14:43:33.581Z,30.80
2018-05-14T14:46:01.050Z,28.70
2018-05-14T14:48:28.491Z,29.53
2018-05-14T14:50:55.930Z,28.07
2018-05-14T14:53:23.391Z,27.73
2018-05-14T14:55:51.124Z,28.23
2018-05-14T14:58:18.693Z,31.07
2018-05-14T15:00:46.071Z,29.07
2018-05-14T15:03:13.827Z,30.80
2018-05-14T15:05:41.272Z,30.07
2018-05-14T15:08:08.702Z,25.73
2018-05-14T15:10:36.160Z,31.50
2018-05-14T15:13:03.598Z,32.13
2018-05-14T15:15:31.047Z,31.43
2018-05-14T15:17:58.508Z,26.77
2018-05-14T15:20:25.963Z,28.60
2018-05-14T15:22:53.419Z,31.27
2018-05-14T15:25:20.870Z,32.80
2018-05-14T15:27:48.319Z,30.80
2018-05-14T15:30:15.759Z,30.53
2018-05-14T15:32:46.630Z,31.53
2018-05-14T15:35:14.287Z,28.90
2018-05-14T15:37:41.778Z,27.53
2018-05-14T15:40:10.215Z,30.50
2018-05-14T15:42:37.667Z,34.23
2018-05-14T15:45:05.102Z,35.57
2018-05-14T15:47:32.543Z,34.00
2018-05-14T15:50:00.089Z,32.50
2018-05-14T15:52:27.435Z,31.90
2018-05-14T15:54:54.891Z,29.40
2018-05-14T15:57:22.335Z,33.33
2018-05-14T15:59:49.783Z,31.43
2018-05-14T16:02:17.261Z,34.33
2018-05-14T16:04:44.739Z,36.40
2018-05-14T16:07:12.186Z,31.87
2018-05-14T16:09:39.630Z,36.93
2018-05-14T16:12:07.086Z,33.57
2018-05-14T16:14:35.396Z,31.93
2018-05-14T16:17:02.803Z,32.13
2018-05-14T16:19:30.278Z,35.13
2018-05-14T16:21:57.728Z,35.00
2018-05-14T16:24:25.264Z,37.07
2018-05-14T16:26:52.620Z,35.60
2018-05-14T16:29:20.067Z,39.40
2018-05-14T16:31:48.275Z,36.47
2018-05-14T16:34:15.744Z,35.13
2018-05-14T16:36:43.190Z,37.57
2018-05-14T16:39:10.647Z,36.27
2018-05-14T16:41:38.155Z,38.00
2018-05-14T16:44:05.617Z,37.97
2018-05-14T16:46:34.020Z,37.70
2018-05-14T16:49:01.534Z,34.87
2018-05-14T16:51:28.908Z,37.80
2018-05-14T16:53:56.322Z,37.60
2018-05-14T16:56:23.801Z,44.27
2018-05-14T16:58:51.246Z,41.63
2018-05-14T17:01:19.680Z,38.20
2018-05-14T17:03:47.129Z,38.63
2018-05-14T17:06:24.911Z,40.47
2018-05-14T17:08:55.583Z,40.53
2018-05-14T17:11:25.077Z,43.50
2018-05-14T17:13:52.546Z,44.00
2018-05-14T17:16:20.039Z,40.97
2018-05-14T17:18:48.306Z,41.97
2018-05-14T17:21:15.747Z,42.00
2018-05-14T17:23:43.442Z,42.67
2018-05-14T17:26:10.975Z,40.77
2018-05-14T17:28:38.595Z,42.53
2018-05-14T17:31:07.019Z,41.27
2018-05-14T17:33:35.256Z,42.27
2018-05-14T17:36:03.513Z,46.53
2018-05-14T17:38:30.974Z,46.53
2018-05-14T17:40:58.423Z,42.50
2018-05-14T17:43:25.870Z,44.83
2018-05-14T17:45:54.235Z,41.33
2018-05-14T17:48:21.667Z,39.17
2018-05-14T17:50:49.119Z,38.10
2018-05-14T17:53:16.593Z,36.13
2018-05-14T17:55:44.070Z,38.43
2018-05-14T17:58:11.651Z,40.77
2018-05-14T18:00:39.115Z,41.80
2018-05-14T18:03:06.570Z,42.73
2018-05-14T18:05:34.880Z,40.60
2018-05-14T18:08:03.376Z,39.47
2018-05-14T18:10:30.896Z,39.50
2018-05-14T18:12:58.402Z,40.80
2018-05-14T18:15:25.943Z,41.03
2018-05-14T18:17:53.452Z,40.77
2018-05-14T18:20:25.909Z,40.87
2018-05-14T18:22:53.350Z,41.93
2018-05-14T18:25:26.594Z,39.63
2018-05-14T18:27:59.921Z,38.37
2018-05-14T18:30:28.283Z,39.23
2018-05-14T18:33:01.398Z,41.30
2018-05-14T18:35:40.813Z,41.40
2018-05-14T18:38:08.503Z,41.20
2018-05-14T18:40:36.468Z,47.43
2018-05-14T18:43:03.979Z,44.73
2018-05-14T18:45:31.588Z,42.03
2018-05-14T18:47:59.371Z,43.30
2018-05-14T18:50:26.874Z,44.83
2018-05-14T18:52:54.328Z,52.37
2018-05-14T18:55:21.948Z,46.37
2018-05-14T18:57:49.484Z,51.13
2018-05-14T19:00:17.121Z,47.43
2018-05-14T19:02:44.853Z,48.20
2018-05-14T19:05:12.308Z,48.73
2018-05-14T19:07:40.145Z,52.97
2018-05-14T19:10:13.466Z,47.40
2018-05-14T19:12:41.256Z,51.03
2018-05-14T19:15:14.588Z,47.77
2018-05-14T19:17:47.837Z,47.83
2018-05-14T19:20:15.420Z,51.27
2018-05-14T19:22:48.530Z,54.60
2018-05-14T19:25:16.013Z,67.77
2018-05-14T19:27:49.179Z,91.47
2018-05-14T19:30:18.684Z,66.70
2018-05-14T19:32:46.415Z,68.57
2018-05-14T19:35:19.511Z,63.13
2018-05-14T19:37:46.947Z,64.37
2018-05-14T19:40:20.083Z,64.27
2018-05-14T19:42:47.631Z,64.10
2018-05-14T19:45:15.107Z,63.10
2018-05-14T19:47:42.647Z,60.10
2018-05-14T19:50:10.980Z,68.37
2018-05-14T19:52:38.528Z,58.27
2018-05-14T19:55:06.973Z,58.33
2018-05-14T19:57:34.719Z,63.37
2018-05-14T20:00:02.488Z,64.17
2018-05-14T20:02:30.089Z,56.40
2018-05-14T20:04:58.422Z,52.80
2018-05-14T20:07:26.111Z,52.37
2018-05-14T20:09:54.185Z,54.57
2018-05-14T20:12:22.320Z,55.57
2018-05-14T20:14:50.310Z,70.67
2018-05-14T20:17:18.496Z,62.80
2018-05-14T20:19:46.090Z,58.63
2018-05-14T20:22:13.923Z,62.23
2018-05-14T20:24:41.491Z,53.33
2018-05-14T20:27:09.149Z,57.77
2018-05-14T20:29:36.810Z,58.20
2018-05-14T20:32:04.372Z,54.53
2018-05-14T20:34:32.000Z,55.50
2018-05-14T20:36:59.450Z,55.70
2018-05-14T20:41:59.192Z,52.70
2018-05-14T20:44:27.564Z,64.20
2018-05-14T20:46:55.281Z,55.27
2018-05-14T20:49:22.827Z,55.40
2018-05-14T20:51:52.494Z,54.80
2018-05-14T20:54:19.972Z,58.83
2018-05-14T20:56:47.428Z,61.87
2018-05-14T20:59:15.692Z,53.17
2018-05-14T21:01:43.150Z,56.60
2018-05-14T21:04:10.592Z,54.80
2018-05-14T21:06:38.055Z,57.13
2018-05-14T21:09:06.432Z,61.07
2018-05-14T21:11:33.964Z,62.03
2018-05-14T21:14:01.463Z,60.13
2018-05-14T21:16:28.935Z,63.63
2018-05-14T21:18:56.374Z,56.63
2018-05-14T21:21:23.861Z,58.97
2018-05-14T21:23:51.282Z,62.30
2018-05-14T21:26:18.740Z,59.73
2018-05-14T21:28:46.210Z,62.97
2018-05-14T21:31:13.721Z,56.50
2018-05-14T21:33:41.134Z,61.07
2018-05-14T21:36:08.610Z,54.67
2018-05-14T21:38:36.045Z,66.97
2018-05-14T21:41:03.489Z,60.70
2018-05-14T21:43:30.931Z,59.77
2018-05-14T21:45:58.364Z,57.00
2018-05-14T21:48:25.826Z,66.60
2018-05-14T21:50:53.271Z,65.20
2018-05-14T21:53:20.735Z,71.43
2018-05-14T21:55:48.214Z,72.77
2018-05-14T21:58:16.737Z,74.97
2018-05-14T22:00:44.167Z,77.13
2018-05-14T22:03:11.615Z,71.57
2018-05-14T22:05:50.650Z,72.00
2018-05-14T22:08:18.127Z,74.20
2018-05-14T22:10:45.711Z,72.53
2018-05-14T22:13:13.153Z,76.27
2018-05-14T22:15:40.638Z,86.03
2018-05-14T22:18:08.118Z,82.03
2018-05-14T22:20:35.620Z,84.63
2018-05-14T22:23:03.069Z,75.60
2018-05-14T22:25:30.599Z,72.07
2018-05-14T22:27:57.964Z,91.00
2018-05-14T22:30:25.399Z,76.83
2018-05-14T22:32:52.836Z,80.43
2018-05-14T22:35:20.313Z,80.20
2018-05-14T22:37:47.780Z,79.63
2018-05-14T22:40:15.223Z,83.27
2018-05-14T22:42:42.702Z,77.43
2018-05-14T22:45:10.142Z,74.13
2018-05-14T22:47:37.588Z,67.50
2018-05-14T22:50:05.056Z,71.90
2018-05-14T22:52:33.267Z,59.73
2018-05-14T22:55:00.705Z,53.90
2018-05-14T22:57:28.146Z,58.33
2018-05-14T22:59:55.625Z,55.83
2018-05-14T23:02:23.042Z,55.00
2018-05-14T23:04:50.485Z,46.73
2018-05-14T23:07:17.938Z,39.80
2018-05-14T23:09:45.387Z,40.13
2018-05-14T23:12:12.832Z,36.20
2018-05-14T23:14:40.279Z,35.67
2018-05-14T23:17:07.886Z,34.97
2018-05-14T23:19:35.322Z,35.60
2018-05-14T23:22:02.755Z,31.93
2018-05-14T23:24:30.207Z,33.63
2018-05-14T23:26:57.662Z,35.83
2018-05-14T23:29:25.099Z,35.03
2018-05-14T23:31:52.554Z,33.83
2018-05-14T23:34:19.995Z,32.67
2018-05-14T23:36:47.476Z,36.97
2018-05-14T23:39:14.899Z,35.57
2018-05-14T23:41:42.326Z,53.67
2018-05-14T23:44:09.780Z,55.43
2018-05-14T23:46:37.971Z,51.77
2018-05-14T23:49:05.427Z,58.43
2018-05-14T23:51:32.863Z,58.57
2018-05-14T23:54:00.303Z,61.37
2018-05-14T23:56:27.769Z,55.87
2018-05-14T23:58:55.210Z,51.80
